Decoded Metar for RJNK (KANAZAWA in JAPAN) (IATA:KMQ) | Meteo·Mobile Aviation Weather
aviador You're here:

RJNK Decoded Metar

KANAZAWA in JAPAN
Report Time2019-07-23 03:00:00
UTC Time2019-07-23 03:28:49
Flight Rules vfr VFR
Wind260° at 09 kt
W.Decomp.*RWY 24: 8.0 kt HW 4.1 kt RCW
Visibility9999 m
Phenomena:N/A
Clouds:Few 020 Hf
Scattered 040 Hf
Expected CloudBase > 2,800 ft AGL from Temp-Dew spread
CeilingNone
Temp30°C (ISA +15)
Dew Point23°C (66% RH)
Heat Index34.1°C
QNH1005 hPa
Density Alt2,395 ft
Elevation30 ft
Report Wrong Elevation
Raw Report
METAR RJNK 230300Z 26009KT 230V300 9999 FEW020 SCT040 30/23 Q1005=

Extra information for RJNK:More info

Metar Taf Metar & Taf Last 4 Metars F.Rules Stats Wind Profile Meteogram Temp Stats Airport Information Weather charts Add Link Nearby VenuesMetar ALERT Operation Metar Decoded Social comments